createdAt,value
2022-08-24T00:00:26.151Z,99076.59
2022-08-24T00:02:55.429Z,99082.28
2022-08-24T00:05:22.728Z,99077.22
2022-08-24T00:07:50.854Z,99072.38
2022-08-24T00:10:18.878Z,99081.00
2022-08-24T00:12:46.118Z,99078.09
2022-08-24T00:15:15.698Z,99080.53
2022-08-24T00:17:43.008Z,99079.84
2022-08-24T00:20:12.959Z,99075.69
2022-08-24T00:22:41.122Z,99088.31
2022-08-24T00:25:10.113Z,99083.19
2022-08-24T00:27:37.761Z,99076.25
2022-08-24T00:30:06.458Z,99082.25
2022-08-24T00:32:33.651Z,99078.06
2022-08-24T00:35:01.220Z,99068.59
2022-08-24T00:37:29.872Z,99072.16
2022-08-24T00:39:57.154Z,99074.31
2022-08-24T00:42:24.524Z,99077.38
2022-08-24T00:44:52.117Z,99077.13
2022-08-24T00:47:22.373Z,99080.59
2022-08-24T00:49:55.086Z,99079.91
2022-08-24T00:52:25.915Z,99082.88
2022-08-24T00:54:58.137Z,99077.53
2022-08-24T00:57:37.643Z,99075.66
2022-08-24T01:00:09.854Z,99080.09
2022-08-24T01:02:42.146Z,99074.31
2022-08-24T01:05:10.750Z,99073.88
2022-08-24T01:07:39.187Z,99078.41
2022-08-24T01:10:11.001Z,99073.81
2022-08-24T01:12:39.458Z,99072.09
2022-08-24T01:15:09.241Z,99071.63
2022-08-24T01:17:55.920Z,99069.16
2022-08-24T01:20:26.410Z,99066.75
2022-08-24T01:23:02.577Z,99069.81
2022-08-24T01:25:32.692Z,99066.88
2022-08-24T01:28:04.868Z,99065.63
2022-08-24T01:30:36.715Z,99062.94
2022-08-24T01:33:07.124Z,99056.97
2022-08-24T01:35:36.599Z,99057.13
2022-08-24T01:38:08.796Z,99061.69
2022-08-24T01:40:40.142Z,99066.19
2022-08-24T01:43:08.256Z,99061.22
2022-08-24T01:45:35.385Z,99061.97
2022-08-24T01:48:04.955Z,99063.38
2022-08-24T01:50:32.381Z,99069.09
2022-08-24T01:53:05.381Z,99067.44
2022-08-24T01:55:33.597Z,99071.69
2022-08-24T01:58:02.928Z,99072.81
2022-08-24T02:00:30.770Z,99071.88
2022-08-24T02:02:57.752Z,99074.09
2022-08-24T02:05:25.188Z,99069.41
2022-08-24T02:07:52.412Z,99064.31
2022-08-24T02:10:21.621Z,99062.41
2022-08-24T02:12:57.914Z,99069.38
2022-08-24T02:15:30.451Z,99069.47
2022-08-24T02:17:57.743Z,99067.81
2022-08-24T02:20:26.167Z,99068.50
2022-08-24T02:22:54.196Z,99071.03
2022-08-24T02:25:21.985Z,99069.50
2022-08-24T02:27:48.995Z,99071.72
2022-08-24T02:30:16.168Z,99077.06
2022-08-24T02:32:44.390Z,99076.81
2022-08-24T02:35:11.912Z,99077.00
2022-08-24T02:37:43.858Z,99078.56
2022-08-24T02:40:14.079Z,99080.28
2022-08-24T02:42:41.926Z,99080.03
2022-08-24T02:45:10.144Z,99079.19
2022-08-24T02:47:39.398Z,99081.69
2022-08-24T02:50:11.108Z,99080.41
2022-08-24T02:52:39.507Z,99077.03
2022-08-24T02:55:08.997Z,99086.28
2022-08-24T02:57:38.663Z,99095.00
2022-08-24T03:00:10.537Z,99091.78
2022-08-24T03:02:40.180Z,99090.59
2022-08-24T03:05:10.561Z,99096.13
2022-08-24T03:07:38.025Z,99093.81
2022-08-24T03:10:07.017Z,99096.19
2022-08-24T03:12:34.808Z,99093.16
2022-08-24T03:15:02.358Z,99094.16
2022-08-24T03:17:33.676Z,99093.22
2022-08-24T03:20:00.574Z,99091.59
2022-08-24T03:22:30.077Z,99098.91
2022-08-24T03:24:56.983Z,99098.25
2022-08-24T03:27:23.966Z,99095.22
2022-08-24T03:29:50.914Z,99094.91
2022-08-24T03:32:18.120Z,99092.56
2022-08-24T03:34:45.834Z,99089.25
2022-08-24T03:37:12.959Z,99096.91
2022-08-24T03:39:41.231Z,99099.25
2022-08-24T03:42:08.248Z,99094.91
2022-08-24T03:44:35.477Z,99086.00
2022-08-24T03:47:02.554Z,99088.31
2022-08-24T03:49:30.996Z,99086.66
2022-08-24T03:51:57.831Z,99086.28
2022-08-24T03:54:25.364Z,99084.53
2022-08-24T03:56:53.562Z,99090.22
2022-08-24T03:59:20.741Z,99094.25
2022-08-24T04:01:50.996Z,99089.09
2022-08-24T04:04:17.983Z,99084.97
2022-08-24T04:06:46.817Z,99090.75
2022-08-24T04:09:14.850Z,99082.25
2022-08-24T04:11:45.527Z,99083.63
2022-08-24T04:14:23.710Z,99088.06
2022-08-24T04:16:59.426Z,99082.81
2022-08-24T04:19:34.033Z,99089.50
2022-08-24T04:22:01.095Z,99080.84
2022-08-24T04:24:29.666Z,99082.38
2022-08-24T04:26:56.583Z,99083.22
2022-08-24T04:29:26.529Z,99084.88
2022-08-24T04:31:53.978Z,99077.06
2022-08-24T04:34:22.114Z,99086.25
2022-08-24T04:36:49.772Z,99089.81
2022-08-24T04:39:16.646Z,99093.34
2022-08-24T04:41:46.531Z,99094.34
2022-08-24T04:44:15.239Z,99099.69
2022-08-24T04:46:43.561Z,99089.59
2022-08-24T04:49:10.967Z,99098.59
2022-08-24T04:51:38.596Z,99102.50
2022-08-24T04:54:07.950Z,99098.13
2022-08-24T04:56:37.055Z,99104.38
2022-08-24T04:59:05.629Z,99109.06
2022-08-24T05:01:33.782Z,99106.03
2022-08-24T05:04:05.257Z,99113.31
2022-08-24T05:06:32.965Z,99106.06
2022-08-24T05:09:01.217Z,99109.22
2022-08-24T05:11:29.161Z,99104.53
2022-08-24T05:13:57.841Z,99111.81
2022-08-24T05:16:26.517Z,99110.00
2022-08-24T05:18:55.064Z,99115.72
2022-08-24T05:21:24.968Z,99106.22
2022-08-24T05:23:54.499Z,99112.97
2022-08-24T05:26:25.029Z,99112.03
2022-08-24T05:28:55.345Z,99118.13
2022-08-24T05:31:24.588Z,99122.84
2022-08-24T05:33:52.221Z,99123.22
2022-08-24T05:36:22.027Z,99122.13
2022-08-24T05:38:52.856Z,99127.34
2022-08-24T05:41:19.900Z,99116.09
2022-08-24T05:43:53.355Z,99124.38
2022-08-24T05:46:21.140Z,99122.91
2022-08-24T05:48:53.010Z,99127.41
2022-08-24T05:51:31.677Z,99126.06
2022-08-24T05:54:06.358Z,99126.50
2022-08-24T05:56:48.080Z,99126.81
2022-08-24T05:59:16.127Z,99133.97
2022-08-24T06:01:45.332Z,99133.91
2022-08-24T06:04:12.911Z,99135.59
2022-08-24T06:06:40.018Z,99136.72
2022-08-24T06:09:11.489Z,99141.16
2022-08-24T06:11:41.032Z,99133.94
2022-08-24T06:14:12.064Z,99138.47
2022-08-24T06:16:49.294Z,99140.97
2022-08-24T06:19:19.141Z,99137.66
2022-08-24T06:21:50.179Z,99143.44
2022-08-24T06:24:40.088Z,99133.69
2022-08-24T06:27:22.791Z,99135.44
2022-08-24T06:29:55.124Z,99130.41
2022-08-24T06:32:44.388Z,99137.16
2022-08-24T06:35:21.370Z,99146.56
2022-08-24T06:37:48.546Z,99147.53
2022-08-24T06:40:20.374Z,99147.25
2022-08-24T06:42:48.502Z,99144.56
2022-08-24T06:45:33.985Z,99157.09
2022-08-24T06:48:01.379Z,99154.56
2022-08-24T06:50:28.623Z,99151.16
2022-08-24T06:52:58.871Z,99148.69
2022-08-24T06:55:27.364Z,99147.38
2022-08-24T06:57:54.798Z,99146.31
2022-08-24T07:00:22.360Z,99151.59
2022-08-24T07:02:49.638Z,99144.03
2022-08-24T07:05:18.236Z,99147.56
2022-08-24T07:08:04.986Z,99149.31
2022-08-24T07:10:34.736Z,99165.91
2022-08-24T07:13:01.750Z,99159.69
2022-08-24T07:15:28.717Z,99167.09
2022-08-24T07:18:14.369Z,99166.75
2022-08-24T07:20:44.640Z,99169.19
2022-08-24T07:23:41.862Z,99158.00
2022-08-24T07:26:21.066Z,99159.75
2022-08-24T07:28:53.142Z,99165.25
2022-08-24T07:31:21.478Z,99172.50
2022-08-24T07:34:08.882Z,99172.88
2022-08-24T07:36:38.922Z,99173.66
2022-08-24T07:39:10.807Z,99167.88
2022-08-24T07:42:11.903Z,99171.19
2022-08-24T07:44:28.923Z,99168.34
2022-08-24T07:46:55.877Z,99168.09
2022-08-24T07:49:36.071Z,99166.22
2022-08-24T07:52:05.627Z,99169.72
2022-08-24T07:54:32.866Z,99170.88
2022-08-24T07:57:04.041Z,99172.41
2022-08-24T07:59:30.977Z,99174.56
2022-08-24T08:01:58.690Z,99162.91
2022-08-24T08:04:26.489Z,99169.88
2022-08-24T08:09:27.277Z,99173.59
2022-08-24T08:11:54.256Z,99167.84
2022-08-24T08:14:23.061Z,99170.19
2022-08-24T08:16:50.776Z,99179.06
2022-08-24T08:19:17.901Z,99173.13
2022-08-24T08:22:07.524Z,99182.03
2022-08-24T08:24:44.051Z,99175.47
2022-08-24T08:27:16.913Z,99180.38
2022-08-24T08:29:46.040Z,99185.22
2022-08-24T08:32:16.997Z,99178.69
2022-08-24T08:34:44.850Z,99181.25
2022-08-24T08:37:13.042Z,99182.97
2022-08-24T08:39:40.717Z,99183.34
2022-08-24T08:42:39.353Z,99178.69
2022-08-24T08:45:30.031Z,99179.97
2022-08-24T08:48:56.305Z,99178.25
2022-08-24T08:51:57.729Z,99167.41
2022-08-24T08:54:43.722Z,99167.44
2022-08-24T08:57:27.508Z,99182.50
2022-08-24T09:00:09.250Z,99170.88
2022-08-24T09:02:47.116Z,99171.78
2022-08-24T09:05:48.865Z,99174.13
2022-08-24T09:08:28.379Z,99168.63
2022-08-24T09:11:02.456Z,99171.22
2022-08-24T09:13:56.616Z,99183.69
2022-08-24T09:16:52.185Z,99179.41
2022-08-24T09:19:34.644Z,99183.22
2022-08-24T09:22:10.065Z,99183.97
2022-08-24T09:24:58.926Z,99176.31
2022-08-24T09:27:46.598Z,99186.66
2022-08-24T09:30:23.774Z,99180.34
2022-08-24T09:33:07.871Z,99181.31
2022-08-24T09:36:06.058Z,99179.22
2022-08-24T09:38:59.080Z,99184.31
2022-08-24T09:42:08.542Z,99171.34
2022-08-24T09:45:03.328Z,99166.50
2022-08-24T09:47:50.624Z,99166.22
2022-08-24T09:51:01.549Z,99174.94
2022-08-24T09:54:12.932Z,99167.88
2022-08-24T09:57:13.277Z,99159.16
2022-08-24T10:00:01.990Z,99150.72
2022-08-24T10:03:08.397Z,99158.06
2022-08-24T10:05:52.691Z,99159.16
2022-08-24T10:08:29.285Z,99154.53
2022-08-24T10:11:07.078Z,99142.81
2022-08-24T10:13:44.573Z,99145.81
2022-08-24T10:16:20.451Z,99145.19
2022-08-24T10:19:01.273Z,99153.16
2022-08-24T10:21:36.945Z,99146.28
2022-08-24T10:24:40.341Z,99136.03
2022-08-24T10:27:32.001Z,99128.38
2022-08-24T10:30:23.690Z,99129.31
2022-08-24T10:33:08.971Z,99126.53
2022-08-24T10:35:45.324Z,99120.41
2022-08-24T10:38:44.294Z,99122.00
2022-08-24T10:41:52.502Z,99120.06
2022-08-24T10:44:47.901Z,99128.91
2022-08-24T10:47:23.433Z,99110.59
2022-08-24T10:50:31.075Z,99117.56
2022-08-24T10:53:13.228Z,99101.44
2022-08-24T10:55:41.502Z,99109.81
2022-08-24T10:58:44.141Z,99104.38
2022-08-24T11:01:21.145Z,99110.28
2022-08-24T11:03:51.836Z,99101.66
2022-08-24T11:06:18.990Z,99110.19
2022-08-24T11:08:54.420Z,99104.13
2022-08-24T11:11:27.378Z,99106.69
2022-08-24T11:14:00.736Z,99098.44
2022-08-24T11:16:33.516Z,99099.22
2022-08-24T11:19:02.439Z,99101.53
2022-08-24T11:21:37.981Z,99092.53
2022-08-24T11:24:08.901Z,99091.91
2022-08-24T11:26:51.118Z,99100.66
2022-08-24T11:29:21.359Z,99091.22
2022-08-24T11:31:52.664Z,99090.50
2022-08-24T11:34:35.059Z,99086.75
2022-08-24T11:37:02.172Z,99089.09
2022-08-24T11:39:33.093Z,99084.84
2022-08-24T11:42:07.666Z,99086.66
2022-08-24T11:44:39.788Z,99087.16
2022-08-24T11:47:29.984Z,99085.56
2022-08-24T11:50:03.144Z,99079.63
2022-08-24T11:52:43.585Z,99071.38
2022-08-24T11:55:15.298Z,99073.13
2022-08-24T11:57:48.173Z,99068.84
2022-08-24T12:00:30.237Z,99067.66
2022-08-24T12:03:03.071Z,99078.28
2022-08-24T12:05:40.602Z,99067.91
2022-08-24T12:08:17.481Z,99061.72
2022-08-24T12:10:51.071Z,99060.06
2022-08-24T12:13:32.830Z,99057.03
2022-08-24T12:16:08.256Z,99057.88
2022-08-24T12:18:47.761Z,99055.53
2022-08-24T12:21:18.846Z,99056.41
2022-08-24T12:23:49.035Z,99053.81
2022-08-24T12:26:22.785Z,99050.63
2022-08-24T12:28:54.657Z,99049.81
2022-08-24T12:31:27.800Z,99042.56
2022-08-24T12:34:02.166Z,99042.56
2022-08-24T12:36:36.178Z,99033.38
2022-08-24T12:39:12.536Z,99034.28
2022-08-24T12:41:48.874Z,99035.03
2022-08-24T12:44:17.164Z,99042.03
2022-08-24T12:46:51.815Z,99035.63
2022-08-24T12:49:28.126Z,99026.06
2022-08-24T12:52:17.483Z,99023.41
2022-08-24T12:55:00.762Z,99031.34
2022-08-24T12:57:54.593Z,99030.78
2022-08-24T13:00:27.176Z,99030.16
2022-08-24T13:03:00.376Z,99033.91
2022-08-24T13:05:40.615Z,99040.44
2022-08-24T13:08:15.595Z,99030.88
2022-08-24T13:10:51.573Z,99027.47
2022-08-24T13:13:37.973Z,99029.63
2022-08-24T13:16:08.063Z,99023.50
2022-08-24T13:18:51.742Z,99028.44
2022-08-24T13:21:45.770Z,99026.44
2022-08-24T13:24:46.077Z,99017.19
2022-08-24T13:27:49.654Z,99010.75
2022-08-24T13:30:29.395Z,99015.63
2022-08-24T13:33:02.382Z,99007.88
2022-08-24T13:35:35.431Z,99011.88
2022-08-24T13:38:30.706Z,99003.69
2022-08-24T13:41:03.699Z,99002.19
2022-08-24T13:43:36.278Z,99006.16
2022-08-24T13:46:19.814Z,99013.66
2022-08-24T13:48:55.970Z,99009.38
2022-08-24T13:51:39.556Z,99019.38
2022-08-24T13:54:20.390Z,99012.41
2022-08-24T13:57:04.490Z,99005.31
2022-08-24T13:59:55.918Z,99009.00
2022-08-24T14:02:28.946Z,98998.31
2022-08-24T14:05:04.085Z,99006.41
2022-08-24T14:07:46.314Z,99000.25
2022-08-24T14:10:31.741Z,98994.06
2022-08-24T14:13:04.982Z,98993.25
2022-08-24T14:15:48.673Z,98992.94
2022-08-24T14:18:25.090Z,98999.84
2022-08-24T14:21:06.546Z,98981.94
2022-08-24T14:23:55.692Z,98979.94
2022-08-24T14:27:04.893Z,98984.47
2022-08-24T14:29:41.644Z,98985.72
2022-08-24T14:32:35.695Z,98993.22
2022-08-24T14:35:19.475Z,98989.59
2022-08-24T14:38:05.241Z,98976.75
2022-08-24T14:40:42.938Z,98984.91
2022-08-24T14:43:30.146Z,98981.13
2022-08-24T14:46:10.763Z,98981.94
2022-08-24T14:48:50.784Z,98973.53
2022-08-24T14:51:40.654Z,98978.44
2022-08-24T14:54:17.225Z,98979.72
2022-08-24T14:57:02.631Z,98976.34
2022-08-24T14:59:45.496Z,98972.81
2022-08-24T15:02:55.807Z,98976.19
2022-08-24T15:05:36.072Z,98964.28
2022-08-24T15:08:06.378Z,98965.75
2022-08-24T15:10:37.604Z,98971.09
2022-08-24T15:13:10.588Z,98959.44
2022-08-24T15:15:45.554Z,98960.13
2022-08-24T15:18:25.453Z,98960.13
2022-08-24T15:21:06.872Z,98958.06
2022-08-24T15:23:52.911Z,98957.22
2022-08-24T15:26:32.123Z,98955.47
2022-08-24T15:29:00.143Z,98952.97
2022-08-24T15:31:29.764Z,98958.53
2022-08-24T15:33:59.251Z,98954.88
2022-08-24T15:36:28.203Z,98952.72
2022-08-24T15:38:55.411Z,98949.47
2022-08-24T15:41:28.711Z,98943.34
2022-08-24T15:43:59.804Z,98942.22
2022-08-24T15:46:31.993Z,98945.22
2022-08-24T15:49:05.196Z,98949.00
2022-08-24T15:51:43.586Z,98943.56
2022-08-24T15:54:32.048Z,98937.56
2022-08-24T15:57:01.721Z,98939.81
2022-08-24T15:59:31.477Z,98944.25
2022-08-24T16:02:29.220Z,98936.19
2022-08-24T16:05:09.622Z,98939.50
2022-08-24T16:07:58.809Z,98934.66
2022-08-24T16:10:30.421Z,98937.91
2022-08-24T16:13:07.153Z,98937.09
2022-08-24T16:15:34.615Z,98945.63
2022-08-24T16:18:03.521Z,98941.81
2022-08-24T16:20:33.575Z,98939.19
2022-08-24T16:23:06.224Z,98943.56
2022-08-24T16:25:34.884Z,98935.38
2022-08-24T16:28:07.615Z,98939.19
2022-08-24T16:30:48.463Z,98939.72
2022-08-24T16:33:43.227Z,98944.09
2022-08-24T16:36:14.304Z,98935.47
2022-08-24T16:38:47.050Z,98939.25
2022-08-24T16:41:17.939Z,98937.91
2022-08-24T16:43:45.845Z,98938.72
2022-08-24T16:46:18.337Z,98943.09
2022-08-24T16:48:46.678Z,98937.13
2022-08-24T16:51:13.521Z,98935.75
2022-08-24T16:53:40.431Z,98936.56
2022-08-24T16:56:08.838Z,98935.22
2022-08-24T16:58:37.288Z,98942.31
2022-08-24T17:01:05.496Z,98936.34
2022-08-24T17:03:32.938Z,98938.78
2022-08-24T17:06:01.138Z,98933.03
2022-08-24T17:08:28.809Z,98933.34
2022-08-24T17:10:55.657Z,98929.25
2022-08-24T17:16:11.624Z,98930.59
2022-08-24T17:18:38.979Z,98924.63
2022-08-24T17:21:07.525Z,98939.63
2022-08-24T17:23:35.451Z,98931.44
2022-08-24T17:26:06.747Z,98940.41
2022-08-24T17:28:39.030Z,98937.97
2022-08-24T17:31:06.356Z,98939.34
2022-08-24T17:33:33.181Z,98942.03
2022-08-24T17:36:00.900Z,98948.84
2022-08-24T17:38:30.347Z,98952.34
2022-08-24T17:40:57.328Z,98948.53
2022-08-24T17:43:24.927Z,98954.78
2022-08-24T17:45:53.316Z,98953.41
2022-08-24T17:48:24.057Z,98951.22
2022-08-24T17:50:51.126Z,98949.84
2022-08-24T17:53:17.986Z,98949.81
2022-08-24T17:55:46.522Z,98957.94
2022-08-24T17:58:15.204Z,98954.94
2022-08-24T18:00:42.409Z,98956.00
2022-08-24T18:03:12.308Z,98950.75
2022-08-24T18:05:41.670Z,98957.53
2022-08-24T18:08:09.135Z,98954.81
2022-08-24T18:10:36.051Z,98964.31
2022-08-24T18:13:04.572Z,98965.94
2022-08-24T18:15:36.040Z,98968.34
2022-08-24T18:18:08.502Z,98963.88
2022-08-24T18:20:38.168Z,98960.31
2022-08-24T18:23:05.178Z,98967.03
2022-08-24T18:25:43.764Z,98963.22
2022-08-24T18:28:13.914Z,98977.81
2022-08-24T18:30:41.391Z,98971.22
2022-08-24T18:33:08.789Z,98975.50
2022-08-24T18:35:35.650Z,98975.41
2022-08-24T18:38:02.505Z,98972.91
2022-08-24T18:40:29.526Z,98974.19
2022-08-24T18:43:01.863Z,98977.94
2022-08-24T18:45:32.918Z,98968.06
2022-08-24T18:47:59.930Z,98978.28
2022-08-24T18:50:30.016Z,98978.75
2022-08-24T18:52:57.763Z,98982.94
2022-08-24T18:55:25.602Z,98982.59
2022-08-24T18:57:52.892Z,98982.28
2022-08-24T19:00:20.193Z,98985.72
2022-08-24T19:02:48.525Z,98984.78
2022-08-24T19:05:20.544Z,98986.84
2022-08-24T19:07:49.013Z,98987.28
2022-08-24T19:10:19.104Z,98984.13
2022-08-24T19:12:50.231Z,98986.19
2022-08-24T19:15:31.989Z,98990.13
2022-08-24T19:18:07.690Z,99005.13
2022-08-24T19:20:35.559Z,99000.44
2022-08-24T19:23:07.876Z,98996.59
2022-08-24T19:25:36.845Z,99002.94
2022-08-24T19:28:04.414Z,98997.72
2022-08-24T19:30:31.620Z,98995.84
2022-08-24T19:32:59.349Z,98995.75
2022-08-24T19:35:28.074Z,98994.13
2022-08-24T19:37:55.051Z,98997.00
2022-08-24T19:40:21.914Z,98989.53
2022-08-24T19:42:50.892Z,98991.41
2022-08-24T19:45:40.679Z,98990.84
2022-08-24T19:48:07.989Z,98994.97
2022-08-24T19:50:36.572Z,98995.72
2022-08-24T19:53:04.507Z,98997.19
2022-08-24T19:55:32.309Z,98986.84
2022-08-24T19:58:06.002Z,98988.91
2022-08-24T20:00:38.106Z,98993.16
2022-08-24T20:03:06.273Z,98988.84
2022-08-24T20:05:37.064Z,98980.88
2022-08-24T20:08:05.444Z,98979.50
2022-08-24T20:10:33.369Z,98982.53
2022-08-24T20:13:00.419Z,98981.25
2022-08-24T20:15:27.735Z,98987.00
2022-08-24T20:17:56.735Z,98983.13
2022-08-24T20:20:26.310Z,98986.44
2022-08-24T20:22:54.730Z,98983.41
2022-08-24T20:25:21.651Z,98978.19
2022-08-24T20:27:50.687Z,98985.13
2022-08-24T20:30:25.069Z,98983.97
2022-08-24T20:32:52.999Z,98979.41
2022-08-24T20:35:20.065Z,98988.56
2022-08-24T20:37:47.171Z,98986.66
2022-08-24T20:40:17.414Z,98977.06
2022-08-24T20:42:44.307Z,98976.97
2022-08-24T20:45:12.943Z,98975.06
2022-08-24T20:47:43.918Z,98980.47
2022-08-24T20:50:10.827Z,98984.38
2022-08-24T20:52:37.853Z,98979.91
2022-08-24T20:55:05.461Z,98980.59
2022-08-24T20:57:34.042Z,98981.97
2022-08-24T21:00:00.945Z,98985.66
2022-08-24T21:02:27.794Z,98985.84
2022-08-24T21:04:55.054Z,98980.44
2022-08-24T21:07:21.907Z,98983.63
2022-08-24T21:09:48.851Z,98985.13
2022-08-24T21:12:15.669Z,98981.22
2022-08-24T21:14:43.891Z,98987.13
2022-08-24T21:17:10.751Z,98980.25
2022-08-24T21:19:37.614Z,98981.44
2022-08-24T21:22:04.625Z,98982.97
2022-08-24T21:24:31.491Z,98985.16
2022-08-24T21:26:59.819Z,98980.69
2022-08-24T21:29:29.241Z,98983.00
2022-08-24T21:32:15.691Z,98985.75
2022-08-24T21:34:42.732Z,98983.88
2022-08-24T21:37:10.872Z,98986.50
2022-08-24T21:39:38.023Z,98982.19
2022-08-24T21:42:05.146Z,98986.75
2022-08-24T21:44:32.426Z,98990.28
2022-08-24T21:47:01.450Z,98993.22
2022-08-24T21:49:29.215Z,98986.59
2022-08-24T21:51:56.112Z,98993.44
2022-08-24T21:54:23.163Z,98987.25
2022-08-24T21:56:50.222Z,98979.63
2022-08-24T21:59:17.169Z,98986.66
2022-08-24T22:01:44.130Z,98989.66
2022-08-24T22:04:13.438Z,98996.75
2022-08-24T22:06:40.425Z,98992.22
2022-08-24T22:09:07.826Z,98999.22
2022-08-24T22:11:34.741Z,99004.81
2022-08-24T22:14:03.086Z,98996.81
2022-08-24T22:16:30.264Z,99005.06
2022-08-24T22:19:00.021Z,99001.13
2022-08-24T22:21:31.125Z,99001.53
2022-08-24T22:24:03.642Z,99000.53
2022-08-24T22:26:30.741Z,98999.31
2022-08-24T22:28:57.659Z,98997.88
2022-08-24T22:31:27.076Z,98996.22
2022-08-24T22:33:55.137Z,98993.31
2022-08-24T22:36:24.380Z,98998.84
2022-08-24T22:38:54.463Z,99000.28
2022-08-24T22:41:21.910Z,98997.00
2022-08-24T22:44:07.927Z,99001.13
2022-08-24T22:46:35.809Z,98993.75
2022-08-24T22:49:04.291Z,98990.84
2022-08-24T22:51:31.627Z,98996.41
2022-08-24T22:54:00.178Z,99001.41
2022-08-24T22:56:29.872Z,99009.81
2022-08-24T22:58:57.430Z,99010.19
2022-08-24T23:01:27.499Z,99009.16
2022-08-24T23:03:55.593Z,99010.13
2022-08-24T23:06:23.218Z,99006.00
2022-08-24T23:08:50.195Z,99003.09
2022-08-24T23:11:23.040Z,99005.91
2022-08-24T23:13:49.993Z,99004.22
2022-08-24T23:16:17.936Z,99002.13
2022-08-24T23:19:03.658Z,99002.91
2022-08-24T23:21:31.082Z,99001.44
2022-08-24T23:23:58.193Z,98990.44
2022-08-24T23:26:26.800Z,98989.84
2022-08-24T23:28:53.892Z,98993.50
2022-08-24T23:31:21.990Z,98995.91
2022-08-24T23:33:48.918Z,98996.28
2022-08-24T23:36:18.233Z,99001.38
2022-08-24T23:38:45.058Z,98999.66
2022-08-24T23:41:14.759Z,99007.84
2022-08-24T23:43:43.121Z,98993.22
2022-08-24T23:46:10.986Z,98992.13
2022-08-24T23:48:38.725Z,98999.06
2022-08-24T23:51:08.706Z,99000.84
2022-08-24T23:53:36.197Z,98997.34
2022-08-24T23:56:07.101Z,98994.59
2022-08-24T23:58:34.639Z,98991.66
